createdAt,value
2018-06-08T00:01:52.029Z,32.87
2018-06-08T00:04:20.073Z,33.97
2018-06-08T00:06:48.109Z,34.90
2018-06-08T00:09:16.119Z,36.70
2018-06-08T00:11:44.180Z,36.50
2018-06-08T00:14:12.189Z,35.00
2018-06-08T00:16:40.199Z,36.27
2018-06-08T00:19:08.242Z,35.27
2018-06-08T00:21:36.525Z,38.13
2018-06-08T00:24:04.574Z,35.70
2018-06-08T00:26:32.605Z,37.20
2018-06-08T00:29:00.637Z,35.97
2018-06-08T00:31:28.686Z,37.27
2018-06-08T00:33:56.792Z,37.70
2018-06-08T00:36:24.837Z,36.93
2018-06-08T00:38:52.856Z,38.00
2018-06-08T00:41:20.950Z,38.17
2018-06-08T00:43:49.235Z,36.73
2018-06-08T00:46:17.254Z,39.03
2018-06-08T00:48:45.298Z,38.07
2018-06-08T00:51:13.341Z,34.30
2018-06-08T00:53:41.768Z,38.50
2018-06-08T00:56:15.601Z,37.17
2018-06-08T00:58:43.665Z,37.07
2018-06-08T01:01:12.583Z,40.47
2018-06-08T01:03:40.954Z,37.60
2018-06-08T01:06:09.046Z,40.10
2018-06-08T01:08:37.168Z,40.77
2018-06-08T01:11:05.238Z,38.30
2018-06-08T01:13:33.321Z,37.57
2018-06-08T01:16:01.344Z,38.10
2018-06-08T01:18:29.734Z,38.70
2018-06-08T01:20:57.769Z,39.47
2018-06-08T01:23:25.772Z,41.30
2018-06-08T01:25:53.793Z,43.07
2018-06-08T01:28:21.841Z,41.80
2018-06-08T01:30:49.849Z,40.50
2018-06-08T01:33:18.238Z,42.67
2018-06-08T01:35:46.257Z,41.47
2018-06-08T01:38:14.368Z,42.13
2018-06-08T01:40:42.641Z,39.53
2018-06-08T01:43:10.705Z,41.63
2018-06-08T01:45:38.717Z,41.33
2018-06-08T01:48:07.018Z,41.87
2018-06-08T01:50:35.065Z,41.70
2018-06-08T01:53:03.141Z,41.13
2018-06-08T01:55:31.213Z,41.13
2018-06-08T01:57:59.247Z,39.93
2018-06-08T02:00:27.246Z,43.57
2018-06-08T02:02:55.336Z,40.70
2018-06-08T02:05:23.372Z,41.30
2018-06-08T02:07:51.377Z,43.20
2018-06-08T02:10:19.838Z,42.90
2018-06-08T02:12:47.850Z,42.90
2018-06-08T02:15:15.956Z,42.10
2018-06-08T02:17:44.009Z,42.73
2018-06-08T02:20:12.052Z,43.03
2018-06-08T02:22:40.059Z,42.83
2018-06-08T02:25:08.078Z,42.37
2018-06-08T02:27:36.096Z,43.10
2018-06-08T02:30:04.200Z,41.20
2018-06-08T02:32:32.229Z,40.20
2018-06-08T02:35:00.257Z,43.27
2018-06-08T02:37:28.309Z,40.70
2018-06-08T02:39:56.352Z,39.13
2018-06-08T02:42:24.358Z,40.93
2018-06-08T02:44:52.371Z,41.23
2018-06-08T02:47:20.450Z,41.13
2018-06-08T02:49:48.509Z,41.93
2018-06-08T02:52:16.642Z,40.93
2018-06-08T02:54:44.803Z,40.10
2018-06-08T02:57:12.825Z,39.00
2018-06-08T02:59:40.847Z,40.13
2018-06-08T03:02:08.876Z,41.17
2018-06-08T03:04:36.909Z,40.30
2018-06-08T03:07:05.195Z,40.00
2018-06-08T03:09:33.210Z,41.17
2018-06-08T03:12:07.719Z,38.87
2018-06-08T03:14:36.246Z,40.23
2018-06-08T03:17:04.302Z,44.20
2018-06-08T03:19:32.315Z,42.87
2018-06-08T03:22:00.665Z,44.73
2018-06-08T03:24:28.717Z,42.90
2018-06-08T03:26:56.761Z,41.93
2018-06-08T03:29:24.857Z,43.80
2018-06-08T03:31:52.864Z,41.93
2018-06-08T03:34:20.873Z,43.70
2018-06-08T03:36:48.910Z,41.57
2018-06-08T03:39:16.936Z,41.47
2018-06-08T03:41:45.012Z,43.63
2018-06-08T03:44:13.117Z,43.33
2018-06-08T03:46:41.153Z,45.60
2018-06-08T03:49:09.200Z,47.33
2018-06-08T03:51:37.559Z,46.23
2018-06-08T03:54:05.593Z,44.83
2018-06-08T03:56:33.661Z,44.87
2018-06-08T03:59:01.710Z,48.03
2018-06-08T04:01:29.777Z,47.60
2018-06-08T04:03:57.816Z,49.43
2018-06-08T04:06:25.844Z,45.63
2018-06-08T04:08:53.905Z,46.80
2018-06-08T04:11:22.088Z,49.17
2018-06-08T04:13:50.497Z,48.33
2018-06-08T04:16:18.500Z,49.43
2018-06-08T04:18:46.533Z,47.60
2018-06-08T04:21:14.881Z,50.80
2018-06-08T04:23:42.937Z,51.10
2018-06-08T04:26:11.077Z,50.23
2018-06-08T04:28:39.181Z,52.37
2018-06-08T04:31:07.217Z,51.00
2018-06-08T04:33:35.232Z,51.03
2018-06-08T04:36:03.304Z,51.53
2018-06-08T04:38:31.404Z,50.90
2018-06-08T04:40:59.518Z,51.27
2018-06-08T04:43:27.559Z,51.07
2018-06-08T04:45:55.631Z,51.00
2018-06-08T04:48:23.676Z,52.30
2018-06-08T04:50:51.706Z,50.90
2018-06-08T04:53:19.764Z,53.07
2018-06-08T04:55:47.785Z,51.73
2018-06-08T04:58:15.976Z,52.70
2018-06-08T05:00:44.079Z,51.50
2018-06-08T05:03:12.097Z,52.37
2018-06-08T05:05:40.425Z,49.83
2018-06-08T05:08:08.445Z,51.83
2018-06-08T05:10:36.491Z,49.47
2018-06-08T05:13:04.919Z,50.77
2018-06-08T05:15:32.996Z,51.27
2018-06-08T05:18:01.065Z,50.10
2018-06-08T05:20:29.101Z,50.20
2018-06-08T05:22:57.113Z,50.40
2018-06-08T05:25:25.202Z,54.50
2018-06-08T05:27:53.268Z,53.13
2018-06-08T05:30:23.211Z,49.67
2018-06-08T05:32:51.260Z,52.13
2018-06-08T05:35:19.676Z,48.03
2018-06-08T05:37:47.713Z,50.00
2018-06-08T05:40:15.729Z,49.57
2018-06-08T05:42:44.073Z,48.03
2018-06-08T05:45:12.155Z,48.90
2018-06-08T05:47:40.176Z,51.03
2018-06-08T05:50:08.232Z,49.37
2018-06-08T05:52:36.245Z,54.43
2018-06-08T05:55:04.381Z,48.87
2018-06-08T05:57:32.405Z,49.67
2018-06-08T06:00:00.492Z,51.17
2018-06-08T06:02:28.541Z,50.83
2018-06-08T06:04:56.612Z,51.07
2018-06-08T06:07:24.713Z,51.73
2018-06-08T06:09:52.702Z,48.90
2018-06-08T06:12:21.081Z,49.40
2018-06-08T06:14:49.157Z,48.90
2018-06-08T06:17:17.244Z,48.30
2018-06-08T06:19:45.277Z,49.53
2018-06-08T06:22:13.294Z,49.47
2018-06-08T06:24:41.346Z,51.17
2018-06-08T06:27:09.437Z,50.40
2018-06-08T06:29:37.458Z,50.17
2018-06-08T06:32:05.581Z,50.67
2018-06-08T06:34:33.741Z,47.97
2018-06-08T06:37:01.835Z,50.47
2018-06-08T06:39:29.886Z,51.43
2018-06-08T06:41:57.958Z,48.23
2018-06-08T06:44:26.030Z,50.47
2018-06-08T06:46:54.068Z,49.73
2018-06-08T06:49:22.139Z,47.80
2018-06-08T06:51:50.193Z,48.50
2018-06-08T06:54:18.281Z,48.60
2018-06-08T06:56:46.390Z,49.40
2018-06-08T06:59:14.509Z,48.87
2018-06-08T07:01:42.622Z,47.50
2018-06-08T07:04:10.648Z,47.77
2018-06-08T07:06:38.789Z,46.07
2018-06-08T07:09:07.909Z,46.17
2018-06-08T07:11:35.929Z,46.57
2018-06-08T07:14:04.042Z,44.37
2018-06-08T07:16:32.062Z,45.60
2018-06-08T07:19:00.101Z,46.07
2018-06-08T07:21:28.147Z,46.70
2018-06-08T07:23:56.160Z,46.17
2018-06-08T07:26:24.184Z,44.90
2018-06-08T07:28:52.266Z,41.60
2018-06-08T07:31:20.314Z,41.53
2018-06-08T07:33:48.397Z,39.07
2018-06-08T07:36:16.459Z,39.17
2018-06-08T07:38:44.602Z,40.90
2018-06-08T07:41:13.386Z,39.03
2018-06-08T07:43:41.462Z,38.27
2018-06-08T07:46:09.599Z,37.27
2018-06-08T07:48:37.653Z,37.60
2018-06-08T07:51:05.869Z,38.30
2018-06-08T07:53:33.929Z,37.67
2018-06-08T07:56:01.979Z,38.10
2018-06-08T07:58:30.053Z,36.50
2018-06-08T08:00:58.123Z,39.80
2018-06-08T08:03:26.525Z,42.80
2018-06-08T08:05:54.648Z,43.80
2018-06-08T08:08:23.396Z,42.63
2018-06-08T08:10:51.873Z,43.77
2018-06-08T08:13:19.940Z,42.83
2018-06-08T08:15:47.945Z,44.87
2018-06-08T08:18:15.981Z,43.03
2018-06-08T08:20:44.131Z,44.57
2018-06-08T08:23:12.213Z,44.87
2018-06-08T08:25:40.254Z,44.83
2018-06-08T08:28:08.265Z,45.60
2018-06-08T08:30:36.410Z,43.97
2018-06-08T08:33:04.505Z,47.37
2018-06-08T08:35:32.547Z,45.30
2018-06-08T08:38:00.648Z,43.40
2018-06-08T08:40:28.714Z,43.27
2018-06-08T08:42:56.840Z,43.17
2018-06-08T08:45:24.869Z,41.70
2018-06-08T08:47:52.933Z,43.17
2018-06-08T08:50:21.065Z,44.30
2018-06-08T08:52:49.120Z,42.23
2018-06-08T08:55:17.136Z,41.30
2018-06-08T08:57:45.193Z,44.37
2018-06-08T09:00:13.217Z,42.80
2018-06-08T09:02:41.543Z,43.30
2018-06-08T09:05:09.579Z,45.00
2018-06-08T09:07:37.577Z,42.90
2018-06-08T09:10:05.885Z,40.60
2018-06-08T09:12:33.902Z,43.70
2018-06-08T09:15:01.936Z,42.90
2018-06-08T09:17:30.377Z,41.27
2018-06-08T09:19:58.418Z,42.77
2018-06-08T09:22:33.251Z,41.80
2018-06-08T09:25:01.309Z,41.17
2018-06-08T09:27:29.355Z,43.37
2018-06-08T09:29:57.405Z,43.73
2018-06-08T09:32:25.435Z,42.27
2018-06-08T09:34:53.514Z,40.20
2018-06-08T09:37:21.546Z,42.03
2018-06-08T09:39:49.562Z,42.10
2018-06-08T09:42:17.569Z,42.17
2018-06-08T09:44:45.712Z,42.10
2018-06-08T09:47:13.773Z,40.23
2018-06-08T09:49:41.831Z,41.40
2018-06-08T09:52:09.866Z,41.67
2018-06-08T09:54:37.946Z,41.00
2018-06-08T09:57:05.994Z,41.30
2018-06-08T09:59:34.010Z,41.53
2018-06-08T10:02:02.081Z,40.47
2018-06-08T10:04:30.134Z,37.60
2018-06-08T10:06:58.169Z,34.10
2018-06-08T10:09:26.169Z,35.97
2018-06-08T10:11:54.174Z,35.77
2018-06-08T10:14:22.489Z,35.77
2018-06-08T10:16:50.502Z,36.00
2018-06-08T10:19:18.549Z,35.80
2018-06-08T10:21:46.993Z,37.17
2018-06-08T10:24:15.040Z,36.60
2018-06-08T10:26:43.066Z,34.80
2018-06-08T10:29:11.178Z,35.33
2018-06-08T10:31:39.193Z,34.53
2018-06-08T10:34:07.308Z,35.00
2018-06-08T10:36:35.556Z,34.37
2018-06-08T10:39:04.384Z,35.17
2018-06-08T10:41:32.389Z,33.90
2018-06-08T10:44:00.938Z,34.57
2018-06-08T10:46:29.104Z,35.90
2018-06-08T10:48:57.241Z,37.60
2018-06-08T10:51:25.382Z,36.57
2018-06-08T10:53:53.449Z,36.40
2018-06-08T10:56:21.559Z,38.47
2018-06-08T10:58:49.570Z,37.43
2018-06-08T11:01:17.608Z,38.20
2018-06-08T11:03:45.762Z,37.97
2018-06-08T11:06:14.452Z,37.30
2018-06-08T11:08:42.505Z,36.90
2018-06-08T11:11:10.554Z,36.50
2018-06-08T11:13:38.634Z,35.00
2018-06-08T11:16:06.685Z,33.43
2018-06-08T11:18:34.789Z,33.87
2018-06-08T11:21:02.817Z,33.53
2018-06-08T11:23:30.861Z,34.93
2018-06-08T11:25:58.877Z,35.53
2018-06-08T11:28:26.905Z,36.20
2018-06-08T11:30:54.940Z,34.33
2018-06-08T11:33:22.979Z,34.73
2018-06-08T11:35:51.094Z,34.17
2018-06-08T11:38:19.149Z,34.57
2018-06-08T11:40:47.230Z,32.20
2018-06-08T11:43:15.567Z,33.10
2018-06-08T11:45:43.712Z,33.47
2018-06-08T11:48:11.749Z,34.90
2018-06-08T11:50:40.057Z,33.70
2018-06-08T11:53:08.166Z,36.07
2018-06-08T11:55:36.246Z,34.60
2018-06-08T11:58:04.617Z,35.47
2018-06-08T12:00:32.628Z,34.50
2018-06-08T12:03:00.646Z,35.23
2018-06-08T12:05:28.773Z,35.40
2018-06-08T12:07:56.836Z,34.40
2018-06-08T12:10:24.885Z,32.40
2018-06-08T12:12:52.913Z,32.10
2018-06-08T12:15:20.977Z,29.80
2018-06-08T12:17:48.978Z,30.70
2018-06-08T12:20:17.017Z,32.60
2018-06-08T12:22:45.026Z,33.17
2018-06-08T12:25:13.067Z,30.63
2018-06-08T12:27:41.103Z,32.37
2018-06-08T12:30:09.124Z,32.77
2018-06-08T12:32:37.238Z,32.93
2018-06-08T12:35:05.324Z,35.00
2018-06-08T12:37:33.401Z,36.43
2018-06-08T12:40:01.396Z,31.43
2018-06-08T12:42:29.421Z,31.33
2018-06-08T12:44:57.461Z,32.37
2018-06-08T12:47:25.557Z,29.37
2018-06-08T12:49:53.641Z,26.53
2018-06-08T12:52:21.680Z,23.17
2018-06-08T12:54:49.701Z,27.80
2018-06-08T12:57:18.113Z,26.83
2018-06-08T12:59:46.133Z,20.63
2018-06-08T13:02:14.165Z,19.60
2018-06-08T13:04:42.525Z,17.70
2018-06-08T13:07:10.540Z,17.73
2018-06-08T13:09:38.593Z,20.40
2018-06-08T13:12:06.677Z,21.57
2018-06-08T13:14:34.752Z,21.93
2018-06-08T13:17:02.811Z,21.00
2018-06-08T13:19:30.826Z,21.17
2018-06-08T13:21:58.850Z,21.53
2018-06-08T13:24:26.971Z,20.23
2018-06-08T13:26:55.034Z,21.90
2018-06-08T13:29:23.112Z,23.17
2018-06-08T13:31:51.146Z,24.80
2018-06-08T13:34:19.313Z,25.90
2018-06-08T13:36:47.324Z,22.80
2018-06-08T13:39:15.429Z,24.00
2018-06-08T13:41:43.451Z,20.17
2018-06-08T13:44:11.539Z,19.90
2018-06-08T13:46:44.185Z,21.23
2018-06-08T13:49:12.220Z,22.17
2018-06-08T13:51:40.277Z,21.00
2018-06-08T13:54:08.566Z,21.80
2018-06-08T13:56:36.570Z,22.70
2018-06-08T13:59:04.891Z,21.73
2018-06-08T14:01:32.957Z,19.80
2018-06-08T14:04:01.220Z,20.07
2018-06-08T14:06:29.253Z,19.43
2018-06-08T14:08:57.368Z,18.47
2018-06-08T14:11:25.381Z,20.03
2018-06-08T14:13:53.401Z,20.30
2018-06-08T14:16:21.474Z,19.70
2018-06-08T14:18:49.491Z,22.17
2018-06-08T14:21:17.521Z,20.00
2018-06-08T14:23:45.637Z,19.30
2018-06-08T14:26:14.154Z,20.17
2018-06-08T14:28:42.294Z,20.90
2018-06-08T14:31:10.621Z,18.10
2018-06-08T14:33:38.681Z,18.07
2018-06-08T14:36:06.691Z,16.90
2018-06-08T14:38:35.027Z,17.00
2018-06-08T14:41:03.024Z,15.70
2018-06-08T14:43:31.043Z,15.27
2018-06-08T14:45:59.353Z,15.90
2018-06-08T14:48:27.425Z,15.50
2018-06-08T14:50:55.455Z,16.00
2018-06-08T14:53:23.830Z,15.00
2018-06-08T14:55:51.861Z,15.33
2018-06-08T14:58:19.875Z,15.40
2018-06-08T15:00:47.933Z,16.63
2018-06-08T15:03:16.169Z,16.67
2018-06-08T15:05:44.229Z,18.20
2018-06-08T15:08:12.268Z,17.90
2018-06-08T15:10:40.284Z,18.43
2018-06-08T15:13:08.397Z,18.20
2018-06-08T15:15:36.444Z,18.10
2018-06-08T15:18:04.521Z,19.33
2018-06-08T15:20:32.541Z,18.57
2018-06-08T15:23:00.644Z,19.53
2018-06-08T15:25:28.674Z,19.90
2018-06-08T15:27:56.729Z,19.27
2018-06-08T15:30:24.746Z,19.90
2018-06-08T15:32:52.761Z,20.67
2018-06-08T15:35:20.808Z,19.03
2018-06-08T15:37:48.826Z,19.43
2018-06-08T15:40:16.847Z,16.40
2018-06-08T15:42:44.849Z,15.90
2018-06-08T15:45:12.909Z,16.60
2018-06-08T15:47:41.740Z,18.27
2018-06-08T15:50:09.777Z,19.43
2018-06-08T15:52:37.797Z,19.40
2018-06-08T15:55:05.909Z,18.30
2018-06-08T15:57:33.912Z,20.20
2018-06-08T16:00:01.946Z,19.60
2018-06-08T16:02:29.993Z,20.77
2018-06-08T16:04:58.053Z,18.00
2018-06-08T16:07:26.155Z,17.90
2018-06-08T16:09:54.221Z,17.43
2018-06-08T16:12:22.223Z,19.27
2018-06-08T16:14:50.337Z,18.60
2018-06-08T16:17:18.468Z,19.00
2018-06-08T16:19:46.481Z,17.90
2018-06-08T16:22:14.592Z,17.20
2018-06-08T16:24:42.667Z,17.40
2018-06-08T16:27:10.760Z,15.97
2018-06-08T16:29:38.802Z,17.37
2018-06-08T16:32:06.890Z,17.70
2018-06-08T16:34:34.909Z,19.43
2018-06-08T16:37:02.947Z,18.50
2018-06-08T16:39:30.974Z,19.73
2018-06-08T16:41:59.043Z,20.00
2018-06-08T16:44:27.081Z,18.70
2018-06-08T16:46:55.224Z,20.03
2018-06-08T16:49:23.444Z,19.80
2018-06-08T16:51:51.586Z,19.77
2018-06-08T16:54:19.647Z,19.27
2018-06-08T16:56:47.692Z,20.47
2018-06-08T16:59:15.818Z,18.43
2018-06-08T17:01:43.925Z,20.70
2018-06-08T17:04:11.994Z,21.43
2018-06-08T17:06:40.286Z,21.97
2018-06-08T17:09:08.338Z,19.77
2018-06-08T17:11:36.378Z,20.60
2018-06-08T17:14:04.549Z,20.70
2018-06-08T17:16:32.597Z,20.03
2018-06-08T17:19:00.639Z,20.77
2018-06-08T17:21:29.013Z,20.70
2018-06-08T17:23:57.153Z,20.17
2018-06-08T17:26:25.166Z,24.47
2018-06-08T17:28:53.258Z,22.87
2018-06-08T17:31:21.506Z,21.80
2018-06-08T17:33:49.637Z,21.67
2018-06-08T17:36:17.721Z,20.30
2018-06-08T17:38:45.746Z,21.63
2018-06-08T17:41:13.767Z,21.57
2018-06-08T17:43:41.864Z,20.83
2018-06-08T17:46:09.980Z,22.63
2018-06-08T17:48:38.053Z,20.77
2018-06-08T17:51:06.287Z,19.27
2018-06-08T17:53:34.286Z,20.33
2018-06-08T17:56:02.298Z,20.87
2018-06-08T17:58:30.409Z,21.17
2018-06-08T18:00:58.437Z,20.50
2018-06-08T18:03:26.465Z,20.07
2018-06-08T18:05:54.599Z,21.60
2018-06-08T18:08:22.690Z,24.23
2018-06-08T18:10:50.745Z,23.60
2018-06-08T18:13:18.781Z,24.00
2018-06-08T18:15:46.904Z,24.10
2018-06-08T18:18:14.990Z,23.00
2018-06-08T18:20:43.146Z,22.30
2018-06-08T18:23:11.195Z,22.57
2018-06-08T18:25:39.326Z,23.87
2018-06-08T18:28:07.366Z,23.77
2018-06-08T18:30:35.381Z,22.13
2018-06-08T18:33:03.487Z,20.33
2018-06-08T18:35:31.517Z,19.53
2018-06-08T18:37:59.646Z,17.67
2018-06-08T18:40:27.705Z,17.40
2018-06-08T18:42:55.765Z,17.50
2018-06-08T18:45:23.832Z,16.30
2018-06-08T18:47:51.909Z,16.67
2018-06-08T18:50:19.945Z,19.63
2018-06-08T18:52:47.989Z,19.27
2018-06-08T18:55:16.037Z,19.80
2018-06-08T18:57:44.152Z,19.37
2018-06-08T19:00:12.229Z,18.10
2018-06-08T19:02:40.309Z,18.00
2018-06-08T19:05:08.456Z,17.50
2018-06-08T19:07:36.529Z,17.60
2018-06-08T19:10:04.823Z,16.60
2018-06-08T19:12:32.947Z,15.87
2018-06-08T19:15:01.087Z,16.97
2018-06-08T19:17:29.110Z,17.17
2018-06-08T19:19:57.126Z,17.63
2018-06-08T19:22:25.181Z,14.50
2018-06-08T19:24:53.228Z,15.67
2018-06-08T19:27:21.265Z,14.60
2018-06-08T19:29:49.285Z,16.90
2018-06-08T19:32:17.361Z,15.30
2018-06-08T19:34:45.416Z,16.13
2018-06-08T19:37:13.509Z,17.03
2018-06-08T19:39:41.529Z,17.37
2018-06-08T19:42:09.595Z,17.57
2018-06-08T19:44:37.665Z,17.80
2018-06-08T19:47:05.701Z,18.03
2018-06-08T19:49:33.793Z,18.00
2018-06-08T19:52:02.541Z,18.30
2018-06-08T19:54:30.614Z,18.37
2018-06-08T19:56:58.715Z,20.47
2018-06-08T19:59:26.815Z,21.03
2018-06-08T20:01:54.865Z,18.60
2018-06-08T20:04:22.901Z,21.40
2018-06-08T20:06:50.971Z,21.00
2018-06-08T20:09:19.058Z,19.93
2018-06-08T20:11:47.440Z,21.50
2018-06-08T20:14:15.538Z,22.00
2018-06-08T20:16:43.738Z,23.27
2018-06-08T20:19:11.814Z,21.70
2018-06-08T20:21:40.703Z,22.07
2018-06-08T20:24:08.730Z,22.50
2018-06-08T20:26:36.777Z,23.40
2018-06-08T20:29:05.057Z,23.10
2018-06-08T20:31:33.112Z,22.97
2018-06-08T20:34:01.181Z,22.40
2018-06-08T20:36:29.194Z,22.17
2018-06-08T20:38:57.228Z,24.23
2018-06-08T20:41:25.580Z,23.30
2018-06-08T20:43:54.085Z,24.07
2018-06-08T20:46:22.129Z,25.53
2018-06-08T20:48:50.201Z,26.17
2018-06-08T20:51:18.621Z,26.07
2018-06-08T20:53:46.673Z,26.07
2018-06-08T20:56:15.098Z,25.50
2018-06-08T20:58:43.156Z,26.70
2018-06-08T21:01:11.185Z,27.57
2018-06-08T21:03:39.293Z,27.23
2018-06-08T21:06:07.350Z,26.67
2018-06-08T21:08:35.413Z,27.40
2018-06-08T21:11:03.461Z,27.10
2018-06-08T21:13:31.657Z,27.53
2018-06-08T21:15:59.723Z,25.53
2018-06-08T21:18:27.769Z,24.63
2018-06-08T21:20:55.818Z,27.17
2018-06-08T21:23:23.878Z,27.80
2018-06-08T21:25:51.953Z,27.47
2018-06-08T21:28:19.960Z,26.30
2018-06-08T21:30:47.974Z,26.20
2018-06-08T21:33:16.046Z,27.70
2018-06-08T21:35:44.069Z,28.30
2018-06-08T21:38:12.156Z,27.07
2018-06-08T21:40:40.209Z,27.67
2018-06-08T21:43:08.207Z,28.17
2018-06-08T21:45:36.225Z,27.83
2018-06-08T21:48:04.534Z,27.60
2018-06-08T21:50:32.609Z,28.90
2018-06-08T21:53:00.642Z,27.80
2018-06-08T21:55:28.754Z,28.73
2018-06-08T21:57:56.722Z,27.17
2018-06-08T22:00:24.773Z,26.97
2018-06-08T22:02:52.807Z,26.60
2018-06-08T22:05:20.831Z,26.03
2018-06-08T22:07:48.868Z,26.40
2018-06-08T22:10:16.901Z,26.23
2018-06-08T22:12:44.919Z,27.27
2018-06-08T22:15:12.997Z,25.87
2018-06-08T22:17:41.033Z,27.43
2018-06-08T22:20:09.053Z,24.67
2018-06-08T22:22:39.068Z,24.80
2018-06-08T22:25:07.167Z,24.80
2018-06-08T22:27:35.193Z,24.20
2018-06-08T22:30:03.228Z,25.97
2018-06-08T22:32:31.251Z,24.03
2018-06-08T22:34:59.337Z,25.93
2018-06-08T22:37:27.397Z,23.83
2018-06-08T22:39:55.518Z,25.37
2018-06-08T22:42:23.567Z,24.57
2018-06-08T22:44:51.569Z,25.00
2018-06-08T22:47:19.629Z,23.23
2018-06-08T22:49:47.651Z,24.00
2018-06-08T22:52:15.663Z,23.40
2018-06-08T22:54:43.821Z,23.43
2018-06-08T22:57:11.884Z,23.47
2018-06-08T22:59:39.898Z,23.50
2018-06-08T23:02:07.929Z,23.60
2018-06-08T23:04:35.951Z,22.30
2018-06-08T23:07:03.987Z,22.60
2018-06-08T23:09:32.001Z,23.47
2018-06-08T23:12:00.055Z,21.67
2018-06-08T23:14:28.917Z,20.67
2018-06-08T23:16:57.134Z,23.03
2018-06-08T23:19:25.198Z,22.67
2018-06-08T23:21:53.281Z,21.90
2018-06-08T23:24:21.587Z,21.67
2018-06-08T23:26:49.639Z,20.90
2018-06-08T23:29:17.686Z,20.33
2018-06-08T23:31:46.033Z,21.70
2018-06-08T23:34:14.060Z,21.40
2018-06-08T23:36:42.072Z,21.83
2018-06-08T23:39:10.085Z,21.90
2018-06-08T23:41:38.137Z,21.60
2018-06-08T23:44:06.150Z,22.17
2018-06-08T23:46:34.184Z,22.07
2018-06-08T23:49:02.218Z,21.97
2018-06-08T23:51:30.220Z,22.43
2018-06-08T23:54:23.599Z,21.50
2018-06-08T23:56:54.957Z,23.90
2018-06-08T23:59:23.047Z,20.93
